^^
Grace C. Lehan Memorial Weather Station Historical Data
Daily Summary for January 27, 2021 Units:  English    Metric   Both
Daily Weekly Monthly Yearly
  High: Low: Average:
Temperature: 55.8 °F 50.3 °F 53.3 °F
Dew Point: 52.7 °F 47.2 °F 49.9 °F
Humidity: 96% 82% 88%
Wind Speed: 9mph 0mph 2mph
Wind Gust: 27mph - -
Wind- - SW
Pressure: 29.83 in 29.41 in -
Precipitation: 0.07 in    
 
 
Tabular Data for January 27, 2021
Time Temperature Dew Point Pressure Wind Wind Speed Wind Gust Humidity Rainfall Rate (Hourly) solar
00:00 51.6 °F 50.5 °F 29.45 in WNW 9 mph 18 mph 96% 0.03 in 0 W/m2
00:09 51.5 °F 50.4 °F 29.45 in NNW 2.9 mph 13 mph 96% 0.04 in 0 W/m2
00:14 51.5 °F 50.4 °F 29.45 in NNW 1.4 mph 13 mph 96% 0.04 in 0 W/m2
00:19 51.5 °F 50.4 °F 29.44 in NW 2.9 mph 17 mph 96% 0.05 in 0 W/m2
00:24 51.5 °F 50.4 °F 29.44 in NNW 4.1 mph 17 mph 96% 0.05 in 0 W/m2
00:29 51.4 °F 50.3 °F 29.44 in NNW 1 mph 17 mph 96% 0.06 in 0 W/m2
00:34 51.4 °F 50.3 °F 29.44 in NNW 4.7 mph 20 mph 96% 0.06 in 0 W/m2
00:39 51.4 °F 50.3 °F 29.44 in NW 4.9 mph 20 mph 96% 0.05 in 0 W/m2
00:44 51.4 °F 50.3 °F 29.43 in NW 3.3 mph 20 mph 96% 0.05 in 0 W/m2
00:49 51.4 °F 50.3 °F 29.43 in NNW 3.8 mph 20 mph 96% 0.06 in 0 W/m2
00:54 51.3 °F 50.2 °F 29.44 in NNW 4.2 mph 20 mph 96% 0.06 in 0 W/m2
00:59 51.3 °F 50.2 °F 29.44 in NW 1.6 mph 20 mph 96% 0.06 in 0 W/m2
01:04 51.3 °F 50.2 °F 29.44 in NW 4.5 mph 20 mph 96% 0.06 in 0 W/m2
01:09 51.3 °F 50.2 °F 29.44 in NNW 3.4 mph 17 mph 96% 0.03 in 0 W/m2
01:14 51.4 °F 50.3 °F 29.44 in NW 3.8 mph 17 mph 96% 0.03 in 0 W/m2
01:19 51.4 °F 50.3 °F 29.44 in NNW 2.7 mph 18 mph 96% 0.03 in 0 W/m2
01:24 51.4 °F 50.3 °F 29.44 in NNW 2.3 mph 18 mph 96% 0.03 in 0 W/m2
01:29 51.5 °F 50.4 °F 29.43 in NNW 4.2 mph 18 mph 96% 0.03 in 0 W/m2
01:34 51.5 °F 50.4 °F 29.43 in NW 2.6 mph 18 mph 96% 0.03 in 0 W/m2
01:39 51.6 °F 50.5 °F 29.43 in NNW 1.9 mph 16 mph 96% 0.03 in 0 W/m2
01:44 51.7 °F 50.6 °F 29.43 in NNE 2.5 mph 20 mph 96% 0.03 in 0 W/m2
01:49 51.8 °F 50.7 °F 29.43 in NNW 1.8 mph 20 mph 96% 0.03 in 0 W/m2
01:54 51.9 °F 50.8 °F 29.43 in NNW 2.2 mph 20 mph 96% 0.03 in 0 W/m2
01:59 52 °F 50.9 °F 29.43 in NNW 3.7 mph 20 mph 96% 0.04 in 0 W/m2
02:04 52.1 °F 51 °F 29.43 in NNE 0.9 mph 20 mph 96% 0.04 in 0 W/m2
02:09 52.3 °F 51.2 °F 29.42 in NNW 2.4 mph 12 mph 96% 0.02 in 0 W/m2
02:14 52.4 °F 51.3 °F 29.42 in NNW 1.7 mph 13 mph 96% 0.02 in 0 W/m2
02:19 52.5 °F 51.4 °F 29.42 in NNW 5.2 mph 18 mph 96% 0.02 in 0 W/m2
02:24 52.6 °F 51.5 °F 29.42 in NNW 2.7 mph 18 mph 96% 0.02 in 0 W/m2
02:29 52.7 °F 51.6 °F 29.42 in NNW 2.7 mph 18 mph 96% 0.02 in 0 W/m2
02:34 52.8 °F 51.7 °F 29.42 in NNW 3.3 mph 18 mph 96% 0.02 in 0 W/m2
02:39 52.9 °F 51.8 °F 29.42 in NNW 3.6 mph 15 mph 96% 0.01 in 0 W/m2
02:44 53 °F 51.9 °F 29.42 in North 1.4 mph 15 mph 95.9% 0.01 in 0 W/m2
02:49 53.1 °F 51.7 °F 29.42 in NNW 3.6 mph 15 mph 95% 0.01 in 0 W/m2
02:54 53.2 °F 51.8 °F 29.42 in NNW 3.1 mph 17 mph 95% 0.01 in 0 W/m2
02:59 53.2 °F 51.9 °F 29.42 in NW 1.5 mph 19 mph 95% 0.01 in 0 W/m2
03:04 53.3 °F 51.9 °F 29.42 in NNW 2.4 mph 19 mph 95% 0.01 in 0 W/m2
03:09 53.4 °F 52 °F 29.41 in North 4.6 mph 25 mph 95% 0.00 in 0 W/m2
03:14 53.5 °F 52.1 °F 29.41 in NNW 5.6 mph 25 mph 95% 0.00 in 0 W/m2
03:19 53.6 °F 52.1 °F 29.41 in NNW 4.6 mph 25 mph 94.5% 0.00 in 0 W/m2
03:24 53.7 °F 52.1 °F 29.41 in NW 3 mph 25 mph 94.1% 0.00 in 0 W/m2
03:29 53.8 °F 52.1 °F 29.41 in NNW 7.6 mph 25 mph 94% 0.00 in 0 W/m2
03:34 53.9 °F 52.2 °F 29.41 in North 2 mph 25 mph 94% 0.00 in 0 W/m2
03:39 54 °F 52.3 °F 29.41 in NW 3.1 mph 22 mph 94% 0.00 in 0 W/m2
03:44 54.1 °F 52.5 °F 29.41 in NNW 5 mph 22 mph 94% 0.00 in 0 W/m2
03:49 54.3 °F 52.3 °F 29.41 in NNW 5.5 mph 22 mph 93% 0.00 in 0 W/m2
03:54 54.4 °F 52.5 °F 29.41 in NW 4.7 mph 22 mph 93% 0.00 in 0 W/m2
03:59 54.6 °F 52.6 °F 29.41 in NNW 3.2 mph 22 mph 93% 0.00 in 0 W/m2
04:09 54.7 °F 52.4 °F 29.41 in NNW 1.8 mph 13 mph 92% 0.00 in 0 W/m2
04:14 54.8 °F 52.5 °F 29.41 in NNW 6.7 mph 25 mph 92% 0.00 in 0 W/m2
04:19 54.9 °F 52.5 °F 29.42 in NNW 4.9 mph 25 mph 91.6% 0.00 in 0 W/m2
04:24 55.1 °F 52.5 °F 29.42 in NNW 5.4 mph 25 mph 91% 0.00 in 0 W/m2
04:29 55.1 °F 52.5 °F 29.42 in NNW 3.5 mph 25 mph 91% 0.00 in 0 W/m2
04:34 55.2 °F 52.6 °F 29.41 in NW 3.2 mph 25 mph 91% 0.00 in 0 W/m2
04:39 55.3 °F 52.7 °F 29.42 in NNW 2.9 mph 19 mph 90.9% 0.00 in 0 W/m2
04:44 55.3 °F 52.5 °F 29.42 in NNW 3.7 mph 19 mph 90% 0.00 in 0 W/m2
04:49 55.4 °F 52.5 °F 29.42 in NNW 4.2 mph 20 mph 90% 0.00 in 0 W/m2
04:54 55.4 °F 52.5 °F 29.42 in NNW 5 mph 22 mph 90% 0.00 in 0 W/m2
04:59 55.4 °F 52.5 °F 29.42 in NNW 3.5 mph 22 mph 90% 0.00 in 0 W/m2
05:04 55.4 °F 52.5 °F 29.42 in NNE 2.4 mph 22 mph 89.9% 0.00 in 0 W/m2
05:09 55.5 °F 52.4 °F 29.42 in NW 5.2 mph 19 mph 89.4% 0.00 in 0 W/m2
05:14 55.6 °F 52.4 °F 29.42 in NNE 2.4 mph 19 mph 89% 0.00 in 0 W/m2
05:19 55.7 °F 52.2 °F 29.42 in WNW 3.3 mph 19 mph 88% 0.00 in 0 W/m2
05:24 55.8 °F 52.3 °F 29.43 in NNE 4.9 mph 21 mph 88% 0.00 in 0 W/m2
05:29 55.8 °F 52.3 °F 29.43 in NNW 3.4 mph 21 mph 88% 0.00 in 0 W/m2
05:34 55.7 °F 52.3 °F 29.43 in NW 2.1 mph 21 mph 88.1% 0.00 in 0 W/m2
05:39 55.6 °F 52.1 °F 29.43 in NNW 6.9 mph 21 mph 88% 0.00 in 0 W/m2
05:44 55.6 °F 52.1 °F 29.43 in NNW 3.4 mph 21 mph 88% 0.00 in 0 W/m2
05:49 55.5 °F 52.1 °F 29.43 in NNW 7.5 mph 25 mph 88.3% 0.00 in 0 W/m2
05:54 55.3 °F 52.2 °F 29.43 in NNW 5.8 mph 25 mph 89% 0.00 in 0 W/m2
05:59 55.2 °F 51.9 °F 29.43 in North 5.4 mph 25 mph 88.7% 0.00 in 0 W/m2
06:04 55.1 °F 51.6 °F 29.43 in NNW 5.4 mph 25 mph 88.1% 0.00 in 0 W/m2
06:09 55.1 °F 51.6 °F 29.44 in NNW 3.6 mph 21 mph 88% 0.00 in 0 W/m2
06:14 55.2 °F 51.6 °F 29.44 in North 6.1 mph 24 mph 87.8% 0.00 in 0 W/m2
06:19 55.1 °F 51.3 °F 29.44 in NNW 3.5 mph 24 mph 87% 0.00 in 0 W/m2
06:24 55.2 °F 51.4 °F 29.44 in North 4.4 mph 24 mph 87% 0.00 in 0 W/m2
06:29 55.1 °F 51.2 °F 29.45 in NNW 5.9 mph 24 mph 86.7% 0.00 in 0 W/m2
06:34 55.1 °F 51 °F 29.45 in North 3 mph 24 mph 86% 0.00 in 0 W/m2
06:39 55.1 °F 51.2 °F 29.46 in NNW 5.8 mph 24 mph 86.9% 0.00 in 0 W/m2
06:44 54.9 °F 51.1 °F 29.46 in NNW 2.2 mph 24 mph 87% 0.00 in 0 W/m2
06:49 54.8 °F 51 °F 29.46 in NNW 2.2 mph 24 mph 87% 0.00 in 0 W/m2
06:54 54.8 °F 50.9 °F 29.46 in NNW 5.2 mph 24 mph 86.7% 0.00 in 0 W/m2
06:59 54.9 °F 50.8 °F 29.47 in NNE 3.8 mph 24 mph 86% 0.00 in 0 W/m2
07:04 54.9 °F 50.8 °F 29.47 in North 5.6 mph 24 mph 86% 0.00 in 0 W/m2
07:09 54.9 °F 50.8 °F 29.47 in North 2.2 mph 18 mph 86% 0.00 in 0 W/m2
07:14 54.9 °F 50.8 °F 29.47 in NW 2.8 mph 18 mph 86% 0.00 in 0 W/m2
07:19 54.8 °F 50.7 °F 29.48 in NNW 5.1 mph 25 mph 86% 0.00 in 9 W/m2
07:24 54.8 °F 50.7 °F 29.49 in North 4 mph 25 mph 86% 0.00 in 11 W/m2
07:29 54.7 °F 50.6 °F 29.49 in NNW 3 mph 25 mph 86% 0.00 in 11 W/m2
07:34 54.6 °F 50.5 °F 29.49 in NNW 2.9 mph 25 mph 86% 0.00 in 18 W/m2
07:39 54.4 °F 50.6 °F 29.50 in NNW 3.9 mph 17 mph 86.8% 0.00 in 16 W/m2
07:44 54.3 °F 50.5 °F 29.50 in NNW 3.2 mph 18 mph 87% 0.00 in 19 W/m2
07:49 54.2 °F 50.6 °F 29.50 in NNW 2.9 mph 24 mph 87.7% 0.00 in 21 W/m2
07:54 54.1 °F 50.6 °F 29.50 in NNW 3.1 mph 24 mph 88% 0.00 in 28 W/m2
07:59 54 °F 50.6 °F 29.51 in NNW 5.7 mph 24 mph 88% 0.00 in 28 W/m2
08:00 54 °F 50.5 °F 29.51 in NNE 2 mph 24 mph 88% 0.00 in 25 W/m2
08:09 53.8 °F 50.6 °F 29.52 in North 3.3 mph 27 mph 89% 0.00 in 49 W/m2
08:14 53.8 °F 50.4 °F 29.52 in North 2.5 mph 27 mph 88.2% 0.00 in 47 W/m2
08:19 53.9 °F 50.4 °F 29.52 in NNW 3.2 mph 27 mph 88% 0.00 in 47 W/m2
08:24 54 °F 50.5 °F 29.53 in North 4.5 mph 27 mph 88% 0.00 in 39 W/m2
08:29 53.9 °F 50.5 °F 29.54 in NNW 4.4 mph 27 mph 88% 0.00 in 46 W/m2
08:34 53.9 °F 50.4 °F 29.54 in NNW 3.9 mph 27 mph 88% 0.00 in 47 W/m2
08:39 53.8 °F 50.4 °F 29.55 in NNW 2.6 mph 26 mph 88.2% 0.00 in 37 W/m2
08:44 53.7 °F 50.5 °F 29.55 in NNW 1.8 mph 26 mph 88.8% 0.00 in 35 W/m2
08:49 53.6 °F 50.4 °F 29.55 in NW 4.2 mph 26 mph 89% 0.00 in 51 W/m2
08:54 53.5 °F 50.3 °F 29.55 in NNW 3.8 mph 26 mph 89% 0.00 in 60 W/m2
08:59 53.4 °F 50.3 °F 29.55 in NNW 4.6 mph 26 mph 89% 0.00 in 62 W/m2
09:04 53.4 °F 50.3 °F 29.56 in NNW 2.5 mph 26 mph 89% 0.00 in 62 W/m2
09:09 53.4 °F 50.3 °F 29.56 in North 2.9 mph 16 mph 89% 0.00 in 65 W/m2
09:14 53.4 °F 50.3 °F 29.57 in NNW 3.3 mph 19 mph 89% 0.00 in 65 W/m2
09:19 53.4 °F 50.3 °F 29.57 in North 1.8 mph 19 mph 89% 0.00 in 76 W/m2
09:24 53.5 °F 50.3 °F 29.57 in NNW 2.3 mph 19 mph 89% 0.00 in 100 W/m2
09:29 53.5 °F 50.2 °F 29.58 in NNW 3.9 mph 19 mph 88.5% 0.00 in 86 W/m2
09:34 53.6 °F 50.4 °F 29.58 in NNE 0.5 mph 19 mph 89% 0.00 in 100 W/m2
09:39 53.6 °F 50.5 °F 29.58 in NNE 2.5 mph 14 mph 89.4% 0.00 in 118 W/m2
09:44 53.5 °F 50.6 °F 29.58 in North 2.7 mph 19 mph 90% 0.00 in 128 W/m2
09:49 53.4 °F 50.6 °F 29.58 in NNW 2.6 mph 19 mph 90% 0.00 in 98 W/m2
09:54 53.3 °F 50.5 °F 29.59 in North 1.7 mph 19 mph 90% 0.00 in 98 W/m2
09:59 53.3 °F 50.4 °F 29.59 in NNW 2.8 mph 19 mph 90% 0.00 in 102 W/m2
10:04 53.2 °F 50.4 °F 29.59 in North 0.6 mph 19 mph 90% 0.00 in 72 W/m2
10:09 53.2 °F 50.4 °F 29.59 in NNW 2.7 mph 16 mph 90% 0.00 in 118 W/m2
10:14 53.3 °F 50.4 °F 29.59 in NNW 1.5 mph 16 mph 90% 0.00 in 114 W/m2
10:19 53.3 °F 50.3 °F 29.60 in NNW 3.7 mph 17 mph 89.5% 0.00 in 121 W/m2
10:24 53.3 °F 50.2 °F 29.60 in North 1.7 mph 17 mph 89% 0.00 in 116 W/m2
10:29 53.4 °F 50.3 °F 29.61 in NNW 3.5 mph 17 mph 89% 0.00 in 120 W/m2
10:34 53.5 °F 50.4 °F 29.61 in NNW 2 mph 17 mph 89% 0.00 in 127 W/m2
10:39 53.6 °F 50.3 °F 29.61 in NNW 4.4 mph 16 mph 88.4% 0.00 in 127 W/m2
10:44 53.7 °F 50.2 °F 29.61 in ENE 1.8 mph 16 mph 88% 0.00 in 123 W/m2
10:49 53.7 °F 50.3 °F 29.61 in NE 1.1 mph 16 mph 88% 0.00 in 132 W/m2
10:54 53.7 °F 50.3 °F 29.61 in North 1.8 mph 16 mph 88% 0.00 in 148 W/m2
10:59 53.8 °F 50.2 °F 29.61 in NNW 4 mph 21 mph 87.7% 0.00 in 125 W/m2
11:04 53.8 °F 50 °F 29.61 in NNW 2.1 mph 21 mph 87.1% 0.00 in 216 W/m2
11:09 53.9 °F 50.1 °F 29.61 in North 1 mph 16 mph 87% 0.00 in 162 W/m2
11:14 54 °F 50.2 °F 29.62 in NNW 3.9 mph 17 mph 87% 0.00 in 120 W/m2
11:19 54 °F 50.1 °F 29.62 in NNE 2 mph 17 mph 86.7% 0.00 in 120 W/m2
11:24 53.9 °F 50.2 °F 29.62 in NW 2.1 mph 17 mph 87% 0.00 in 135 W/m2
11:29 53.9 °F 50 °F 29.63 in NW 2.3 mph 17 mph 86.5% 0.00 in 111 W/m2
11:34 53.8 °F 49.7 °F 29.64 in North 2.1 mph 17 mph 86% 0.00 in 118 W/m2
11:39 53.8 °F 49.7 °F 29.64 in NNW 3.1 mph 13 mph 86% 0.00 in 125 W/m2
11:44 53.7 °F 49.6 °F 29.64 in North 2.7 mph 20 mph 86% 0.00 in 134 W/m2
11:49 53.7 °F 49.6 °F 29.64 in North 2.6 mph 20 mph 86% 0.00 in 142 W/m2
11:54 53.7 °F 49.6 °F 29.63 in NNW 2.9 mph 20 mph 86% 0.00 in 148 W/m2
11:59 53.9 °F 49.8 °F 29.64 in NNW 2.9 mph 20 mph 86% 0.00 in 123 W/m2
12:09 53.9 °F 49.5 °F 29.65 in NNE 2.2 mph 9 mph 85.1% 0.00 in 172 W/m2
12:14 53.9 °F 49.6 °F 29.64 in NW 1.6 mph 11 mph 85.3% 0.00 in 172 W/m2
12:19 54 °F 49.6 °F 29.65 in ENE 0.8 mph 11 mph 85.2% 0.00 in 118 W/m2
12:24 53.9 °F 49.5 °F 29.65 in NNE 0.6 mph 11 mph 85% 0.00 in 134 W/m2
12:29 53.9 °F 49.5 °F 29.65 in North 0.6 mph 11 mph 85% 0.00 in 109 W/m2
12:34 53.9 °F 49.5 °F 29.65 in NE 2.7 mph 11 mph 85% 0.00 in 102 W/m2
12:39 53.9 °F 49.3 °F 29.65 in NE 1.3 mph 12 mph 84.5% 0.00 in 111 W/m2
12:44 53.9 °F 49.5 °F 29.65 in North 1.3 mph 13 mph 85% 0.00 in 160 W/m2
12:49 54 °F 49.6 °F 29.65 in NNW 1.1 mph 13 mph 85% 0.00 in 142 W/m2
12:54 54.2 °F 49.7 °F 29.65 in NNW 1.8 mph 15 mph 84.8% 0.00 in 148 W/m2
12:59 54.3 °F 49.6 °F 29.65 in NNW 3.1 mph 21 mph 84.1% 0.00 in 148 W/m2
13:04 54.4 °F 49.7 °F 29.65 in North 1.8 mph 21 mph 84% 0.00 in 148 W/m2
13:09 54.4 °F 49.7 °F 29.65 in North 2.6 mph 13 mph 84% 0.00 in 193 W/m2
13:14 54.5 °F 49.8 °F 29.65 in North 2.5 mph 16 mph 84% 0.00 in 207 W/m2
13:19 54.6 °F 49.9 °F 29.65 in North 1.1 mph 16 mph 84% 0.00 in 130 W/m2
13:24 54.7 °F 49.8 °F 29.65 in North 2.7 mph 16 mph 83.5% 0.00 in 183 W/m2
13:29 54.8 °F 50 °F 29.66 in NNW 2.2 mph 21 mph 83.9% 0.00 in 183 W/m2
13:34 54.9 °F 50 °F 29.66 in NNW 2.5 mph 21 mph 83.6% 0.00 in 163 W/m2
13:39 54.9 °F 49.9 °F 29.66 in NW 4 mph 19 mph 83% 0.00 in 158 W/m2
13:44 55 °F 49.9 °F 29.66 in North 1.4 mph 19 mph 83.2% 0.00 in 153 W/m2
13:49 54.9 °F 49.8 °F 29.66 in NNW 2.2 mph 19 mph 83% 0.00 in 121 W/m2
13:54 54.8 °F 49.7 °F 29.66 in NE 0.9 mph 19 mph 83% 0.00 in 148 W/m2
13:59 54.8 °F 49.7 °F 29.67 in NE 0.9 mph 19 mph 83% 0.00 in 155 W/m2
14:04 54.8 °F 49.8 °F 29.67 in North 0.7 mph 19 mph 83% 0.00 in 155 W/m2
14:09 54.9 °F 49.9 °F 29.67 in North 2.1 mph 12 mph 83% 0.00 in 104 W/m2
14:14 55 °F 49.9 °F 29.67 in NNE 0.8 mph 12 mph 83% 0.00 in 93 W/m2
14:19 55 °F 49.9 °F 29.67 in North 1 mph 12 mph 83% 0.00 in 76 W/m2
14:24 54.9 °F 49.9 °F 29.68 in NE 1.8 mph 15 mph 83% 0.00 in 51 W/m2
14:29 54.9 °F 49.7 °F 29.68 in North 1.1 mph 15 mph 82.8% 0.00 in 46 W/m2
14:34 54.8 °F 49.6 °F 29.68 in NNE 1.2 mph 15 mph 82.4% 0.00 in 58 W/m2
14:39 54.8 °F 49.7 °F 29.69 in NE 0.6 mph 6 mph 83% 0.00 in 54 W/m2
14:44 54.8 °F 49.7 °F 29.69 in NE 0.5 mph 6 mph 83% 0.00 in 54 W/m2
14:49 54.7 °F 49.8 °F 29.69 in NNE 1 mph 10 mph 83.4% 0.00 in 97 W/m2
14:54 54.7 °F 50.2 °F 29.70 in North 1.3 mph 11 mph 84.9% 0.00 in 107 W/m2
14:59 54.5 °F 50.4 °F 29.70 in NE 0.4 mph 11 mph 86% 0.00 in 109 W/m2
15:04 54.3 °F 50.2 °F 29.71 in NNW 1.5 mph 13 mph 86% 0.00 in 79 W/m2
15:09 54.1 °F 50.3 °F 29.71 in ENE 0.5 mph 13 mph 86.9% 0.00 in 70 W/m2
15:14 54 °F 50.2 °F 29.72 in NE 0.7 mph 13 mph 87% 0.00 in 70 W/m2
15:19 53.9 °F 50.1 °F 29.72 in ENE 0.5 mph 13 mph 87.2% 0.00 in 81 W/m2
15:24 53.8 °F 50.3 °F 29.72 in ENE 0.8 mph 13 mph 88% 0.00 in 77 W/m2
15:29 53.7 °F 50.3 °F 29.72 in North 0.6 mph 13 mph 88% 0.00 in 98 W/m2
15:34 53.8 °F 50.3 °F 29.73 in North 1.6 mph 13 mph 87.8% 0.00 in 100 W/m2
15:39 53.9 °F 50.1 °F 29.73 in NNE 1.2 mph 12 mph 87% 0.00 in 102 W/m2
15:44 53.9 °F 50.2 °F 29.73 in North 0.4 mph 12 mph 87% 0.00 in 104 W/m2
15:49 54 °F 50.2 °F 29.73 in NW 1.7 mph 13 mph 87% 0.00 in 84 W/m2
15:54 54 °F 50.3 °F 29.73 in NNW 0.7 mph 13 mph 87.2% 0.00 in 95 W/m2
15:59 54 °F 50.5 °F 29.73 in NNW 0.4 mph 13 mph 87.8% 0.00 in 95 W/m2
16:00 54 °F 50.5 °F 29.73 in Calm   13 mph 88% 0.00 in 74 W/m2
16:09 54 °F 50.2 °F 29.74 in NW 0.6 mph 9 mph 87% 0.00 in 65 W/m2
16:14 53.9 °F 50.2 °F 29.74 in NNE 1.4 mph 9 mph 87% 0.00 in 60 W/m2
16:19 53.9 °F 50 °F 29.74 in NE 1.1 mph 9 mph 86.7% 0.00 in 63 W/m2
16:24 53.9 °F 49.8 °F 29.74 in North 0.7 mph 13 mph 86% 0.00 in 62 W/m2
16:29 53.9 °F 49.8 °F 29.74 in North 1 mph 13 mph 86% 0.00 in 39 W/m2
16:34 53.9 °F 49.9 °F 29.74 in NNW 0.2 mph 13 mph 86% 0.00 in 51 W/m2
16:39 54 °F 49.7 °F 29.74 in NNE 0.5 mph 8 mph 85.3% 0.00 in 51 W/m2
16:44 54.1 °F 49.6 °F 29.75 in North 0.7 mph 12 mph 84.9% 0.00 in 23 W/m2
16:49 54.1 °F 49.5 °F 29.75 in NE 1.6 mph 12 mph 84.1% 0.00 in 19 W/m2
16:54 54.2 °F 49.2 °F 29.75 in NNE 0.5 mph 12 mph 83.1% 0.00 in 19 W/m2
16:59 54.3 °F 49.2 °F 29.76 in North 0.8 mph 12 mph 83% 0.00 in 21 W/m2
17:04 54.3 °F 49.3 °F 29.76 in NNE 0.4 mph 12 mph 83% 0.00 in 19 W/m2
17:09 54.4 °F 49.4 °F 29.75 in North 0.4 mph 5 mph 83.2% 0.00 in 19 W/m2
17:14 54.3 °F 49.4 °F 29.76 in ENE 0.5 mph 5 mph 83.2% 0.00 in 25 W/m2
17:19 54.3 °F 49.3 °F 29.76 in ENE 0.8 mph 6 mph 83% 0.00 in 25 W/m2
17:24 54.2 °F 49.2 °F 29.76 in ENE 1 mph 10 mph 82.9% 0.00 in 16 W/m2
17:29 54.2 °F 48.8 °F 29.77 in ENE 0.5 mph 10 mph 82% 0.00 in 12 W/m2
17:34 54.2 °F 48.8 °F 29.77 in NE 0.7 mph 10 mph 82% 0.00 in 9 W/m2
17:39 54.1 °F 48.8 °F 29.77 in ENE 1.1 mph 5 mph 82% 0.00 in 5 W/m2
17:44 54.1 °F 48.9 °F 29.77 in North 0.3 mph 5 mph 82.5% 0.00 in 5 W/m2
17:49 54 °F 48.7 °F 29.77 in NE 0.8 mph 5 mph 82.1% 0.00 in 0 W/m2
17:54 54 °F 48.6 °F 29.77 in ENE 0.6 mph 5 mph 82% 0.00 in 0 W/m2
17:59 53.9 °F 48.6 °F 29.77 in NE 0.6 mph 9 mph 82.2% 0.00 in 0 W/m2
18:04 53.8 °F 48.5 °F 29.77 in ENE 0.6 mph 9 mph 82% 0.00 in 0 W/m2
18:09 53.7 °F 48.3 °F 29.78 in NE 1.6 mph 10 mph 82% 0.00 in 0 W/m2
18:14 53.6 °F 48.3 °F 29.78 in ENE 1.4 mph 10 mph 82% 0.00 in 0 W/m2
18:19 53.5 °F 48.2 °F 29.78 in ENE 1.6 mph 10 mph 82% 0.00 in 0 W/m2
18:24 53.5 °F 48.3 °F 29.78 in ENE 0.6 mph 10 mph 82.5% 0.00 in 0 W/m2
18:29 53.4 °F 48.3 °F 29.78 in ENE 0.3 mph 10 mph 83% 0.00 in 0 W/m2
18:34 53.3 °F 48.3 °F 29.78 in North 0.4 mph 10 mph 83% 0.00 in 0 W/m2
18:39 53.2 °F 48.2 °F 29.78 in NE 0.3 mph 4 mph 83% 0.00 in 0 W/m2
18:44 53.1 °F 48.4 °F 29.78 in NE 0.1 mph 4 mph 84% 0.00 in 0 W/m2
18:49 53 °F 48.3 °F 29.78 in ENE 0.1 mph 4 mph 84% 0.00 in 0 W/m2
18:54 53 °F 48.3 °F 29.78 in ENE 0.1 mph 4 mph 84% 0.00 in 0 W/m2
18:59 52.9 °F 48.3 °F 29.79 in East 0.2 mph 4 mph 84.2% 0.00 in 0 W/m2
19:04 52.8 °F 48.4 °F 29.79 in ENE 0.4 mph 4 mph 84.7% 0.00 in 0 W/m2
19:09 52.8 °F 48.4 °F 29.79 in ENE 0.4 mph 4 mph 85% 0.00 in 0 W/m2
19:14 52.7 °F 48.4 °F 29.79 in ENE 0.7 mph 7 mph 85% 0.00 in 0 W/m2
19:19 52.7 °F 48.3 °F 29.79 in NE 0.1 mph 7 mph 85% 0.00 in 0 W/m2
19:24 52.6 °F 48.2 °F 29.79 in NE 0.2 mph 7 mph 85% 0.00 in 0 W/m2
19:29 52.5 °F 48.1 °F 29.78 in NE 0.5 mph 7 mph 85% 0.00 in 0 W/m2
19:34 52.4 °F 48.3 °F 29.78 in Calm   7 mph 85.8% 0.00 in 0 W/m2
19:39 52.4 °F 48.3 °F 29.79 in NE 0.3 mph 3 mph 86% 0.00 in 0 W/m2
19:44 52.3 °F 48.2 °F 29.79 in Calm   3 mph 86% 0.00 in 0 W/m2
19:49 52.3 °F 48.2 °F 29.79 in Calm   3 mph 86% 0.00 in 0 W/m2
19:54 52.3 °F 48.2 °F 29.79 in Calm   3 mph 86% 0.00 in 0 W/m2
19:59 52.2 °F 48.4 °F 29.79 in Calm   3 mph 86.7% 0.00 in 0 W/m2
20:00 52.2 °F 48.5 °F 29.79 in Calm   3 mph 87% 0.00 in 0 W/m2
20:09 52.3 °F 48.6 °F 29.80 in Calm     87.1% 0.00 in 0 W/m2
20:14 52.3 °F 48.9 °F 29.80 in Calm     88% 0.00 in 0 W/m2
20:19 52.3 °F 48.9 °F 29.80 in Calm     88% 0.00 in 0 W/m2
20:24 52.2 °F 48.8 °F 29.80 in Calm     88% 0.00 in 0 W/m2
20:29 52.1 °F 48.5 °F 29.80 in Calm     87.5% 0.00 in 0 W/m2
20:34 51.9 °F 48.2 °F 29.80 in Calm     87% 0.00 in 0 W/m2
20:39 51.7 °F 48.1 °F 29.80 in Calm     87.3% 0.00 in 0 W/m2
20:44 51.5 °F 48.1 °F 29.81 in Calm     88% 0.00 in 0 W/m2
20:49 51.3 °F 47.9 °F 29.81 in Calm     88% 0.00 in 0 W/m2
20:54 51.1 °F 47.7 °F 29.81 in Calm     88% 0.00 in 0 W/m2
20:59 50.9 °F 47.5 °F 29.81 in Calm     88% 0.00 in 0 W/m2
21:04 50.8 °F 47.5 °F 29.81 in Calm     88.5% 0.00 in 0 W/m2
21:09 50.6 °F 47.5 °F 29.81 in Calm     89% 0.00 in 0 W/m2
21:14 50.5 °F 47.3 °F 29.82 in Calm     89% 0.00 in 0 W/m2
21:19 50.4 °F 47.5 °F 29.82 in Calm     89.8% 0.00 in 0 W/m2
21:24 50.3 °F 47.5 °F 29.82 in Calm     90% 0.00 in 0 W/m2
21:29 50.3 °F 47.5 °F 29.82 in Calm     90% 0.00 in 0 W/m2
21:34 50.3 °F 47.5 °F 29.82 in Calm     90% 0.00 in 0 W/m2
21:39 50.4 °F 47.5 °F 29.82 in Calm     89.8% 0.00 in 0 W/m2
21:44 50.5 °F 47.3 °F 29.82 in Calm     89% 0.00 in 0 W/m2
21:49 50.5 °F 47.4 °F 29.82 in Calm   1 mph 89% 0.00 in 0 W/m2
21:54 50.7 °F 47.6 °F 29.82 in Calm   1 mph 89% 0.00 in 0 W/m2
21:59 50.8 °F 47.7 °F 29.82 in Calm   1 mph 89% 0.00 in 0 W/m2
22:04 50.9 °F 47.8 °F 29.82 in Calm   1 mph 89% 0.00 in 0 W/m2
22:09 51 °F 47.9 °F 29.82 in Calm     89% 0.00 in 0 W/m2
22:14 51.1 °F 48 °F 29.83 in Calm     89% 0.00 in 0 W/m2
22:19 51.2 °F 48 °F 29.83 in Calm     89% 0.00 in 0 W/m2
22:24 51.2 °F 48.1 °F 29.82 in Calm     89% 0.00 in 0 W/m2
22:29 51.2 °F 48.1 °F 29.82 in Calm     89% 0.00 in 0 W/m2
22:34 51.3 °F 48.2 °F 29.82 in Calm     89% 0.00 in 0 W/m2
22:39 51.2 °F 48.1 °F 29.82 in Calm     89% 0.00 in 0 W/m2
22:44 51.2 °F 48.1 °F 29.82 in Calm     89% 0.00 in 0 W/m2
22:49 51.1 °F 48 °F 29.82 in Calm     89% 0.00 in 0 W/m2
22:54 51 °F 47.9 °F 29.82 in Calm     89% 0.00 in 0 W/m2
22:59 51 °F 47.8 °F 29.82 in Calm     89% 0.00 in 0 W/m2
23:04 50.9 °F 47.8 °F 29.82 in Calm   2 mph 89% 0.00 in 0 W/m2
23:09 50.8 °F 47.7 °F 29.82 in Calm   2 mph 89% 0.00 in 0 W/m2
23:14 50.8 °F 47.7 °F 29.82 in Calm   2 mph 89% 0.00 in 0 W/m2
23:19 50.8 °F 47.9 °F 29.82 in Calm   2 mph 89.7% 0.00 in 0 W/m2
23:24 50.8 °F 47.8 °F 29.82 in NE 0.1 mph 2 mph 89.5% 0.00 in 0 W/m2
23:29 50.9 °F 47.8 °F 29.82 in Calm   2 mph 89% 0.00 in 0 W/m2
23:34 50.9 °F 47.8 °F 29.82 in Calm   2 mph 89% 0.00 in 0 W/m2
23:39 51 °F 47.9 °F 29.82 in Calm     89% 0.00 in 0 W/m2
23:44 51 °F 47.9 °F 29.82 in Calm     89% 0.00 in 0 W/m2
23:49 51 °F 47.9 °F 29.82 in NE 0.3 mph 4 mph 89% 0.00 in 0 W/m2
23:54 50.9 °F 47.5 °F 29.81 in ENE 1.3 mph 5 mph 88.1% 0.00 in 0 W/m2
23:59 50.9 °F 47.2 °F 29.81 in ENE 0.6 mph 5 mph 87.1% 0.00 in 0 W/m2
Hartford County Weather
Compliments of Weather Underground - 2 mb